Time;durP1;ratioP1;P1;durP2;ratioP2;P2;SDS_P1;SDS_P2;PMS_P1;PMS_P2;Temp;Humidity;BMP_temperature;BMP_pressure;BME280_temperature;BME280_humidity;BME280_pressure;Samples;Min_cycle;Max_cycle;Signal;HPM_P1;HPM_P2
2023/05/13 00:04:21;;;;;;;;;;;;;;;8.82;100.00;95546.88;10439774;28;2189;-69
2023/05/13 00:09:23;;;;;;;;;;;;;;;8.98;100.00;95547.72;10441712;28;1915;-70
2023/05/13 00:14:25;;;;;;;;;;;;;;;8.97;100.00;95548.75;10442633;28;1854;-76
2023/05/13 00:19:28;;;;;;;;;;;;;;;8.77;100.00;95549.56;10439417;28;2048;-71
2023/05/13 00:24:30;;;;;;;;;;;;;;;8.87;100.00;95545.03;10448130;28;2034;-69
2023/05/13 00:29:32;;;;;;;;;;;;;;;8.84;100.00;95552.78;10436251;28;1890;-70
2023/05/13 00:34:35;;;;;;;;;;;;;;;8.73;100.00;95561.91;10435693;28;5161;-70
2023/05/13 00:39:37;;;;;;;;;;;;;;;8.64;100.00;95561.59;10436093;28;1960;-70
2023/05/13 00:44:40;;;;;;;;;;;;;;;8.59;100.00;95559.75;10438978;28;2255;-70
2023/05/13 00:49:42;;;;;;;;;;;;;;;8.70;100.00;95559.75;10441047;28;2255;-70
2023/05/13 00:54:45;;;;;;;;;;;;;;;8.74;100.00;95567.00;10445809;28;2049;-71
2023/05/13 00:59:48;;;;;;;;;;;;;;;8.74;100.00;95561.63;10444228;28;2033;-70
2023/05/13 01:04:50;;;;;;;;;;;;;;;8.70;100.00;95549.03;10434515;28;1981;-69
2023/05/13 01:09:54;;;;;;;;;;;;;;;8.62;100.00;95553.84;10435764;28;2132;-69
2023/05/13 01:14:56;;;;;;;;;;;;;;;8.77;100.00;95555.72;10440263;28;2203;-70
2023/05/13 01:19:58;;;;;;;;;;;;;;;8.72;100.00;95560.31;10436971;28;2089;-70
2023/05/13 01:25:01;;;;;;;;;;;;;;;8.66;100.00;95557.59;10439476;28;1989;-70
2023/05/13 01:30:03;;;;;;;;;;;;;;;8.56;100.00;95562.94;10442887;28;2000;-70
2023/05/13 01:35:06;;;;;;;;;;;;;;;8.54;100.00;95565.09;10435415;28;4734;-70
2023/05/13 01:40:08;;;;;;;;;;;;;;;8.52;100.00;95558.38;10439994;28;2262;-69
2023/05/13 01:45:32;;;;;;;;;;;;;;;8.49;100.00;95569.63;10441627;28;1945;-70
2023/05/13 01:50:34;;;;;;;;;;;;;;;8.43;100.00;95571.50;10444344;28;2077;-71
2023/05/13 01:55:36;;;;;;;;;;;;;;;8.39;100.00;95568.53;10440460;28;1918;-70
2023/05/13 02:00:38;;;;;;;;;;;;;;;8.29;100.00;95570.38;10436171;28;1988;-69
2023/05/13 02:05:41;;;;;;;;;;;;;;;8.31;100.00;95573.56;10434535;28;2023;-70
2023/05/13 02:10:43;;;;;;;;;;;;;;;8.35;100.00;95563.94;10435756;28;1960;-70
2023/05/13 02:15:45;;;;;;;;;;;;;;;8.29;100.00;95573.03;10436727;28;2200;-70
2023/05/13 02:20:48;;;;;;;;;;;;;;;8.27;100.00;95564.44;10434554;28;2020;-70
2023/05/13 02:25:50;;;;;;;;;;;;;;;8.34;100.00;95573.88;10438148;28;2338;-71
2023/05/13 02:30:52;;;;;;;;;;;;;;;8.44;100.00;95570.41;10439279;28;2031;-70
2023/05/13 02:35:55;;;;;;;;;;;;;;;8.30;100.00;95580.81;10438099;28;4712;-70
2023/05/13 02:40:57;;;;;;;;;;;;;;;8.30;100.00;95574.66;10438120;28;2041;-71
2023/05/13 02:45:59;;;;;;;;;;;;;;;8.32;100.00;95575.19;10438450;28;1921;-76
2023/05/13 02:51:05;;;;;;;;;;;;;;;8.34;100.00;95578.41;10435183;28;2136;-69
2023/05/13 02:56:07;;;;;;;;;;;;;;;8.43;100.00;95581.41;10436244;28;1989;-70
2023/05/13 03:01:10;;;;;;;;;;;;;;;8.37;100.00;95580.59;10435315;28;1957;-70
2023/05/13 03:06:14;;;;;;;;;;;;;;;8.24;100.00;95573.81;10433320;28;2116;-73
2023/05/13 03:11:16;;;;;;;;;;;;;;;8.34;100.00;95565.03;10437715;28;2042;-70
2023/05/13 03:16:19;;;;;;;;;;;;;;;8.29;100.00;95565.81;10436505;28;2280;-69
2023/05/13 03:21:21;;;;;;;;;;;;;;;8.45;100.00;95569.34;10437046;28;2096;-69
2023/05/13 03:26:23;;;;;;;;;;;;;;;8.42;100.00;95572.56;10435801;28;2038;-70
2023/05/13 03:31:26;;;;;;;;;;;;;;;8.32;100.00;95581.34;10441063;28;1925;-70
2023/05/13 03:36:28;;;;;;;;;;;;;;;8.38;100.00;95580.31;10441322;28;4631;-71
2023/05/13 03:41:31;;;;;;;;;;;;;;;8.40;100.00;95582.75;10442389;28;2018;-71
2023/05/13 03:46:33;;;;;;;;;;;;;;;8.24;100.00;95581.06;10438140;28;2129;-70
2023/05/13 03:51:36;;;;;;;;;;;;;;;8.30;100.00;95586.16;10445827;28;2160;-69
2023/05/13 03:56:38;;;;;;;;;;;;;;;8.31;100.00;95590.44;10449451;28;2090;-69
2023/05/13 04:01:40;;;;;;;;;;;;;;;8.35;100.00;95594.25;10442516;28;2045;-71
2023/05/13 04:06:43;;;;;;;;;;;;;;;8.30;100.00;95598.75;10438758;28;1982;-69
2023/05/13 04:11:45;;;;;;;;;;;;;;;8.23;100.00;95606.22;10441665;28;2135;-70
2023/05/13 04:16:48;;;;;;;;;;;;;;;8.15;100.00;95606.75;10441110;28;2013;-70
2023/05/13 04:21:50;;;;;;;;;;;;;;;8.21;100.00;95613.72;10443048;28;2036;-70
2023/05/13 04:26:52;;;;;;;;;;;;;;;8.16;100.00;95613.69;10442889;28;2305;-69
2023/05/13 04:31:55;;;;;;;;;;;;;;;8.22;100.00;95618.00;10442959;28;1996;-74
2023/05/13 04:36:57;;;;;;;;;;;;;;;8.12;100.00;95627.59;10444335;28;4660;-71
2023/05/13 04:42:00;;;;;;;;;;;;;;;8.02;100.00;95630.25;10444107;28;1968;-70
2023/05/13 04:47:02;;;;;;;;;;;;;;;7.99;100.00;95635.31;10439133;28;1969;-71
2023/05/13 04:52:04;;;;;;;;;;;;;;;8.05;100.00;95651.13;10441849;28;1960;-71
2023/05/13 04:57:07;;;;;;;;;;;;;;;8.09;100.00;95641.50;10440233;28;2016;-69
2023/05/13 05:02:09;;;;;;;;;;;;;;;8.09;100.00;95646.88;10436792;28;2084;-69
2023/05/13 05:07:11;;;;;;;;;;;;;;;8.12;100.00;95648.22;10440611;28;2082;-70
2023/05/13 05:12:14;;;;;;;;;;;;;;;8.15;100.00;95644.22;10444893;28;2132;-73
2023/05/13 05:17:16;;;;;;;;;;;;;;;8.17;100.00;95655.47;10443966;28;2060;-73
2023/05/13 05:22:19;;;;;;;;;;;;;;;8.11;100.00;95660.78;10436567;28;1984;-71
2023/05/13 05:27:22;;;;;;;;;;;;;;;8.14;100.00;95659.44;10434026;28;2160;-76
2023/05/13 05:32:25;;;;;;;;;;;;;;;8.23;100.00;95673.97;10439309;28;1956;-70
2023/05/13 05:37:28;;;;;;;;;;;;;;;8.26;100.00;95669.97;10437869;28;4605;-71
2023/05/13 05:42:30;;;;;;;;;;;;;;;8.28;100.00;95675.88;10420834;28;1935;-71
2023/05/13 05:47:33;;;;;;;;;;;;;;;8.32;100.00;95672.41;10442775;28;2187;-73
2023/05/13 05:52:36;;;;;;;;;;;;;;;8.44;100.00;95666.84;10440208;28;1927;-70
2023/05/13 05:57:38;;;;;;;;;;;;;;;8.56;100.00;95672.00;10436910;28;2025;-70
2023/05/13 06:02:41;;;;;;;;;;;;;;;8.54;100.00;95679.50;10441134;28;2088;-69
2023/05/13 06:07:44;;;;;;;;;;;;;;;8.33;100.00;95671.34;10433154;28;1977;-71
2023/05/13 06:12:46;;;;;;;;;;;;;;;8.35;100.00;95679.13;10434960;28;1908;-71
2023/05/13 06:17:49;;;;;;;;;;;;;;;8.37;100.00;95680.50;10435659;28;2089;-70
2023/05/13 06:22:52;;;;;;;;;;;;;;;8.48;100.00;95675.19;10442343;28;1839;-71
2023/05/13 06:27:54;;;;;;;;;;;;;;;8.54;100.00;95680.28;10429780;28;1925;-70
2023/05/13 06:32:57;;;;;;;;;;;;;;;8.70;100.00;95667.72;10430549;28;1980;-71
2023/05/13 06:38:04;;;;;;;;;;;;;;;8.85;100.00;95675.84;10436009;28;4580;-71
2023/05/13 06:43:06;;;;;;;;;;;;;;;8.85;100.00;95680.38;10428332;28;2113;-71
2023/05/13 06:48:08;;;;;;;;;;;;;;;9.15;100.00;95685.78;10430523;28;1975;-70
2023/05/13 06:53:11;;;;;;;;;;;;;;;8.94;100.00;95673.44;10429220;28;1918;-71
2023/05/13 06:58:16;;;;;;;;;;;;;;;9.16;100.00;95676.69;10429102;28;2543;-71
2023/05/13 07:03:19;;;;;;;;;;;;;;;8.99;100.00;95673.44;10436028;28;1929;-77
2023/05/13 07:08:22;;;;;;;;;;;;;;;8.90;100.00;95686.53;10426354;28;1983;-71
2023/05/13 07:13:25;;;;;;;;;;;;;;;9.23;100.00;95691.72;10437301;28;1915;-71
2023/05/13 07:18:28;;;;;;;;;;;;;;;9.06;100.00;95692.75;10436322;28;2172;-71
2023/05/13 07:23:31;;;;;;;;;;;;;;;8.98;100.00;95689.81;10442667;28;2155;-72
2023/05/13 07:28:34;;;;;;;;;;;;;;;8.94;100.00;95689.50;10432533;28;1930;-71
2023/05/13 07:33:36;;;;;;;;;;;;;;;9.28;100.00;95694.38;10447591;28;4584;-70
2023/05/13 07:38:39;;;;;;;;;;;;;;;9.42;100.00;95695.50;10439766;28;2024;-70
2023/05/13 07:43:42;;;;;;;;;;;;;;;9.80;100.00;95687.94;10438762;28;1895;-70
2023/05/13 07:48:44;;;;;;;;;;;;;;;9.75;100.00;95688.75;10443072;28;1910;-73
2023/05/13 07:53:47;;;;;;;;;;;;;;;9.44;100.00;95694.13;10447357;28;2072;-71
2023/05/13 07:58:50;;;;;;;;;;;;;;;9.33;100.00;95702.44;10443753;28;1855;-71
2023/05/13 08:03:52;;;;;;;;;;;;;;;9.27;100.00;95714.25;10433306;28;1841;-70
2023/05/13 08:08:55;;;;;;;;;;;;;;;9.11;100.00;95716.91;10441386;28;2031;-73
2023/05/13 08:13:57;;;;;;;;;;;;;;;9.27;100.00;95712.34;10442015;28;1926;-75
2023/05/13 08:18:59;;;;;;;;;;;;;;;9.30;100.00;95711.03;10445858;28;2096;-75
2023/05/13 08:24:02;;;;;;;;;;;;;;;9.25;100.00;95719.06;10461924;28;1855;-76
2023/05/13 08:29:05;;;;;;;;;;;;;;;9.08;100.00;95721.97;10454073;28;1914;-74
2023/05/13 08:34:08;;;;;;;;;;;;;;;9.01;100.00;95729.47;10448321;28;4757;-74
2023/05/13 08:39:10;;;;;;;;;;;;;;;8.90;100.00;95736.66;10429004;28;1919;-74
2023/05/13 08:44:13;;;;;;;;;;;;;;;9.14;100.00;95740.50;10445706;28;1877;-75
2023/05/13 08:49:16;;;;;;;;;;;;;;;9.44;100.00;95731.69;10444290;28;2062;-75
2023/05/13 08:54:18;;;;;;;;;;;;;;;9.61;100.00;95718.03;10439234;28;1910;-75
2023/05/13 08:59:24;;;;;;;;;;;;;;;9.66;100.00;95728.75;10449918;28;1499;-75
2023/05/13 09:04:27;;;;;;;;;;;;;;;9.64;100.00;95719.34;10447962;28;1610;-76
2023/05/13 09:09:29;;;;;;;;;;;;;;;9.64;100.00;95722.84;10448256;28;1969;-75
2023/05/13 09:14:32;;;;;;;;;;;;;;;10.05;100.00;95714.75;10448563;28;1559;-74
2023/05/13 09:19:34;;;;;;;;;;;;;;;9.98;100.00;95722.28;10445682;28;1473;-77
2023/05/13 09:24:37;;;;;;;;;;;;;;;9.88;100.00;95722.31;10451304;28;1517;-75
2023/05/13 09:29:40;;;;;;;;;;;;;;;9.87;100.00;95729.56;10441772;28;2044;-75
2023/05/13 09:34:43;;;;;;;;;;;;;;;10.16;100.00;95720.91;10452916;28;4652;-77
2023/05/13 09:39:46;;;;;;;;;;;;;;;10.14;100.00;95717.69;10451153;28;1641;-76
2023/05/13 09:44:48;;;;;;;;;;;;;;;10.43;100.00;95721.44;10454631;28;2182;-76
2023/05/13 09:49:51;;;;;;;;;;;;;;;10.34;100.00;95714.19;10457121;28;2005;-76
2023/05/13 09:54:54;;;;;;;;;;;;;;;10.39;100.00;95719.56;10453128;28;1471;-76
2023/05/13 09:59:56;;;;;;;;;;;;;;;10.50;100.00;95716.56;10458549;28;1801;-75
2023/05/13 10:04:58;;;;;;;;;;;;;;;10.74;100.00;95711.34;10448931;28;1700;-76
2023/05/13 10:10:01;;;;;;;;;;;;;;;11.45;100.00;95703.94;10453191;28;2036;-76
2023/05/13 10:15:03;;;;;;;;;;;;;;;11.23;100.00;95699.78;10433080;28;1703;-76
2023/05/13 10:20:05;;;;;;;;;;;;;;;11.43;100.00;95708.81;10448650;28;1464;-77
2023/05/13 10:25:08;;;;;;;;;;;;;;;11.80;100.00;95702.88;10445113;28;1906;-76
2023/05/13 10:30:10;;;;;;;;;;;;;;;11.96;100.00;95692.78;10454468;28;1488;-76
2023/05/13 10:35:12;;;;;;;;;;;;;;;11.93;100.00;95693.34;10443741;28;4698;-75
2023/05/13 10:40:15;;;;;;;;;;;;;;;11.41;100.00;95700.22;10443690;28;1457;-74
2023/05/13 10:45:17;;;;;;;;;;;;;;;11.49;100.00;95700.41;10455779;28;2056;-75
2023/05/13 10:50:20;;;;;;;;;;;;;;;11.53;100.00;95701.47;10461360;28;1492;-73
2023/05/13 10:55:23;;;;;;;;;;;;;;;12.02;100.00;95697.03;10465981;28;1542;-71
2023/05/13 11:00:25;;;;;;;;;;;;;;;12.35;100.00;95700.75;10470737;28;1632;-74
2023/05/13 11:05:27;;;;;;;;;;;;;;;12.04;100.00;95705.66;10462443;28;1979;-75
2023/05/13 11:10:30;;;;;;;;;;;;;;;11.66;100.00;95715.38;10462785;28;1495;-74
2023/05/13 11:15:32;;;;;;;;;;;;;;;11.44;100.00;95707.72;10455726;28;1661;-73
2023/05/13 11:20:35;;;;;;;;;;;;;;;11.60;100.00;95711.91;10461400;28;1532;-75
2023/05/13 11:25:53;;;;;;;;;;;;;;;11.82;100.00;95719.56;10448060;28;1973;-75
2023/05/13 11:30:55;;;;;;;;;;;;;;;12.45;100.00;95706.81;10461790;28;1519;-77
2023/05/13 11:35:58;;;;;;;;;;;;;;;12.51;100.00;95707.56;10460085;28;4648;-77
2023/05/13 11:41:00;;;;;;;;;;;;;;;12.08;100.00;95728.22;10458878;28;2058;-74
2023/05/13 11:46:02;;;;;;;;;;;;;;;11.70;100.00;95730.66;10455401;28;1902;-74
2023/05/13 11:51:05;;;;;;;;;;;;;;;11.60;100.00;95730.75;10464764;28;1531;-76
2023/05/13 11:56:07;;;;;;;;;;;;;;;11.93;100.00;95731.88;10458127;28;1855;-77
2023/05/13 12:01:09;;;;;;;;;;;;;;;12.07;100.00;95718.53;10453929;28;1891;-77
2023/05/13 12:06:12;;;;;;;;;;;;;;;12.37;100.00;95720.94;10449939;28;2025;-76
2023/05/13 12:11:14;;;;;;;;;;;;;;;12.67;100.00;95722.50;10450940;28;1851;-77
2023/05/13 12:16:17;;;;;;;;;;;;;;;13.21;100.00;95717.78;10446805;28;2105;-76
2023/05/13 12:21:19;;;;;;;;;;;;;;;13.65;100.00;95716.59;10441965;28;1981;-75
2023/05/13 12:26:21;;;;;;;;;;;;;;;14.26;100.00;95704.75;10445847;28;1962;-74
2023/05/13 12:31:24;;;;;;;;;;;;;;;14.07;100.00;95707.53;10441727;28;2243;-73
2023/05/13 12:36:32;;;;;;;;;;;;;;;13.58;100.00;95702.66;10447511;28;4643;-76
2023/05/13 12:41:35;;;;;;;;;;;;;;;13.66;100.00;95707.38;10443405;28;1894;-72
2023/05/13 12:46:38;;;;;;;;;;;;;;;14.65;100.00;95698.09;10447401;28;1973;-80
2023/05/13 12:51:41;;;;;;;;;;;;;;;14.39;100.00;95698.56;10452243;28;1957;-76
2023/05/13 12:56:43;;;;;;;;;;;;;;;13.98;100.00;95693.88;10453743;28;1899;-76
2023/05/13 13:01:46;;;;;;;;;;;;;;;13.30;100.00;95709.84;10449933;28;1895;-77
2023/05/13 13:06:49;;;;;;;;;;;;;;;13.40;100.00;95712.38;10438369;28;1934;-72
2023/05/13 13:11:52;;;;;;;;;;;;;;;13.61;100.00;95710.97;10438764;28;1923;-72
2023/05/13 13:16:54;;;;;;;;;;;;;;;14.59;100.00;95711.72;10440344;28;1891;-73
2023/05/13 13:21:56;;;;;;;;;;;;;;;15.22;100.00;95709.38;10438892;28;1871;-73
2023/05/13 13:26:59;;;;;;;;;;;;;;;15.51;100.00;95701.63;10431893;28;2001;-74
2023/05/13 13:32:01;;;;;;;;;;;;;;;15.72;100.00;95701.22;10422994;28;2197;-72
2023/05/13 13:37:04;;;;;;;;;;;;;;;15.91;100.00;95697.22;10430211;28;4677;-71
2023/05/13 13:42:06;;;;;;;;;;;;;;;15.88;100.00;95688.88;10444178;28;1929;-74
2023/05/13 13:47:09;;;;;;;;;;;;;;;16.21;100.00;95679.34;10444076;28;1975;-75
2023/05/13 13:52:11;;;;;;;;;;;;;;;16.91;100.00;95674.19;10445911;28;2053;-78
2023/05/13 13:57:22;;;;;;;;;;;;;;;17.06;100.00;95668.34;10455149;28;1873;-73
2023/05/13 14:02:28;;;;;;;;;;;;;;;16.45;100.00;95659.19;10448802;28;2066;-73
2023/05/13 14:07:31;;;;;;;;;;;;;;;16.41;100.00;95660.91;10424157;28;2015;-74
2023/05/13 14:12:35;;;;;;;;;;;;;;;15.18;100.00;95665.03;10437363;28;2291;-72
2023/05/13 14:17:50;;;;;;;;;;;;;;;14.49;100.00;95665.13;10444317;28;2099;-74
2023/05/13 14:22:55;;;;;;;;;;;;;;;14.39;100.00;95660.72;10443152;28;1700;-74
2023/05/13 14:28:16;;;;;;;;;;;;;;;14.66;100.00;95665.34;10443557;28;2282;-76
2023/05/13 14:33:27;;;;;;;;;;;;;;;14.60;100.00;95663.84;10433352;28;1895;-73
2023/05/13 14:38:32;;;;;;;;;;;;;;;15.12;100.00;95657.03;10432452;28;2251;-76
2023/05/13 14:43:37;;;;;;;;;;;;;;;15.65;100.00;95656.38;10442073;28;1840;-73
2023/05/13 14:48:40;;;;;;;;;;;;;;;16.01;100.00;95662.81;10447762;28;1915;-74
2023/05/13 14:53:51;;;;;;;;;;;;;;;16.31;100.00;95655.78;10432477;28;1987;-73
2023/05/13 14:58:56;;;;;;;;;;;;;;;15.59;100.00;95649.47;10430520;28;1861;-73
2023/05/13 15:04:05;;;;;;;;;;;;;;;14.73;100.00;95644.09;10444581;28;1828;-74
2023/05/13 15:09:11;;;;;;;;;;;;;;;14.50;100.00;95640.47;10441835;28;1915;-75
2023/05/13 15:14:20;;;;;;;;;;;;;;;14.81;100.00;95635.25;10437693;28;1928;-76
2023/05/13 15:19:33;;;;;;;;;;;;;;;14.90;100.00;95637.25;10445565;28;1895;-77
2023/05/13 15:25:10;;;;;;;;;;;;;;;15.13;100.00;95647.00;10436427;28;2031;-73
2023/05/13 15:30:18;;;;;;;;;;;;;;;14.59;100.00;95641.41;10444053;28;2171;-73
2023/05/13 15:35:29;;;;;;;;;;;;;;;14.59;100.00;95637.88;10444729;28;1801;-74
2023/05/13 15:40:33;;;;;;;;;;;;;;;14.38;100.00;95640.19;10446421;28;1917;-75
2023/05/13 15:45:38;;;;;;;;;;;;;;;14.56;100.00;95633.88;10429101;28;1760;-74
2023/05/13 15:50:56;;;;;;;;;;;;;;;14.43;100.00;95639.25;10454644;28;2019;-76
2023/05/13 15:56:07;;;;;;;;;;;;;;;15.09;100.00;95629.78;10447515;28;1859;-75
2023/05/13 16:01:11;;;;;;;;;;;;;;;15.22;100.00;95633.56;10448616;28;1917;-72
2023/05/13 16:06:15;;;;;;;;;;;;;;;15.67;100.00;95621.63;10442153;28;1858;-75
2023/05/13 16:11:19;;;;;;;;;;;;;;;15.58;100.00;95614.53;10447846;28;1958;-73
2023/05/13 16:16:37;;;;;;;;;;;;;;;15.47;100.00;95618.59;10449206;28;1954;-73
2023/05/13 16:21:41;;;;;;;;;;;;;;;15.53;100.00;95623.59;10447682;28;2126;-74
2023/05/13 16:26:45;;;;;;;;;;;;;;;15.26;100.00;95619.06;10445411;28;1914;-75
2023/05/13 16:31:49;;;;;;;;;;;;;;;15.49;100.00;95614.47;10430081;28;1904;-72
2023/05/13 16:37:01;;;;;;;;;;;;;;;15.77;100.00;95612.44;10435709;28;4746;-72
2023/05/13 16:42:03;;;;;;;;;;;;;;;15.71;100.00;95615.59;10424469;28;1942;-73
2023/05/13 16:47:08;;;;;;;;;;;;;;;15.44;100.00;95611.88;10421720;28;1933;-73
2023/05/13 16:52:19;;;;;;;;;;;;;;;14.82;100.00;95608.97;10443542;28;1833;-73
2023/05/13 16:57:24;;;;;;;;;;;;;;;14.38;100.00;95604.19;10442007;28;1899;-71
2023/05/13 17:02:27;;;;;;;;;;;;;;;13.99;100.00;95605.50;10443443;28;1880;-71
2023/05/13 17:07:32;;;;;;;;;;;;;;;13.89;100.00;95605.69;10445395;28;2063;-74
2023/05/13 17:12:36;;;;;;;;;;;;;;;13.71;100.00;95615.47;10442527;28;2057;-78
2023/05/13 17:17:45;;;;;;;;;;;;;;;13.62;100.00;95601.84;10440524;28;1958;-71
2023/05/13 17:22:52;;;;;;;;;;;;;;;13.78;100.00;95607.78;10448303;28;1844;-73
2023/05/13 17:27:57;;;;;;;;;;;;;;;13.69;100.00;95614.97;10443480;28;1969;-72
2023/05/13 17:33:02;;;;;;;;;;;;;;;13.53;100.00;95606.31;10453065;28;2031;-73
2023/05/13 17:38:10;;;;;;;;;;;;;;;13.34;100.00;95616.34;10428610;28;4660;-74
2023/05/13 17:43:19;;;;;;;;;;;;;;;13.32;100.00;95611.25;10441716;28;1866;-73
2023/05/13 17:48:22;;;;;;;;;;;;;;;13.29;100.00;95617.22;10424208;28;1965;-73
2023/05/13 17:53:35;;;;;;;;;;;;;;;13.22;100.00;95617.59;10440178;28;1855;-73
2023/05/13 17:58:42;;;;;;;;;;;;;;;13.22;100.00;95614.09;10440966;28;1911;-73
2023/05/13 18:03:56;;;;;;;;;;;;;;;13.07;100.00;95625.91;10438030;28;1878;-73
2023/05/13 18:09:01;;;;;;;;;;;;;;;12.97;100.00;95616.06;10436806;28;2007;-72
2023/05/13 18:14:05;;;;;;;;;;;;;;;12.97;100.00;95626.84;10435101;28;2044;-74
2023/05/13 18:19:27;;;;;;;;;;;;;;;12.86;100.00;95632.72;10440721;28;1925;-72
2023/05/13 18:24:33;;;;;;;;;;;;;;;12.76;100.00;95633.63;10438929;28;1847;-74
2023/05/13 18:29:39;;;;;;;;;;;;;;;12.59;100.00;95639.50;10421469;28;1951;-71
2023/05/13 18:34:44;;;;;;;;;;;;;;;12.57;100.00;95643.59;10418901;28;4628;-75
2023/05/13 18:39:50;;;;;;;;;;;;;;;12.52;100.00;95640.97;10440539;28;1453;-75
2023/05/13 18:44:54;;;;;;;;;;;;;;;12.51;100.00;95650.16;10417394;28;1761;-73
2023/05/13 18:49:59;;;;;;;;;;;;;;;12.49;100.00;95653.13;10446994;28;1906;-72
2023/05/13 18:55:02;;;;;;;;;;;;;;;12.41;100.00;95662.66;10419402;28;1736;-72
2023/05/13 19:00:16;;;;;;;;;;;;;;;12.28;100.00;95668.75;10436220;28;1476;-73
2023/05/13 19:05:19;;;;;;;;;;;;;;;12.39;100.00;95674.81;10418260;28;1772;-72
2023/05/13 19:15:42;;;;;;;;;;;;;;;12.18;100.00;95674.25;10418178;28;1527;-73
2023/05/13 19:20:53;;;;;;;;;;;;;;;12.17;100.00;95673.44;10437222;28;1803;-74
2023/05/13 19:26:09;;;;;;;;;;;;;;;12.25;100.00;95663.13;10445211;28;1668;-72
2023/05/13 19:31:13;;;;;;;;;;;;;;;12.23;100.00;95671.50;10447420;28;1938;-73
2023/05/13 19:36:22;;;;;;;;;;;;;;;12.23;100.00;95676.09;10427770;28;4440;-73
2023/05/13 19:41:26;;;;;;;;;;;;;;;12.18;100.00;95680.44;10452908;28;1482;-74
2023/05/13 19:46:36;;;;;;;;;;;;;;;12.12;100.00;95689.66;10452900;28;1791;-72
2023/05/13 19:51:42;;;;;;;;;;;;;;;12.10;100.00;95685.66;10448710;28;1987;-73
2023/05/13 19:56:46;;;;;;;;;;;;;;;12.00;100.00;95681.16;10432293;28;1603;-72
2023/05/13 20:02:01;;;;;;;;;;;;;;;11.85;100.00;95679.41;10452097;28;1439;-74
2023/05/13 20:07:08;;;;;;;;;;;;;;;11.66;100.00;95678.47;10449062;28;2089;-72
2023/05/13 20:12:20;;;;;;;;;;;;;;;11.56;100.00;95683.94;10450660;28;1906;-73
2023/05/13 20:17:25;;;;;;;;;;;;;;;11.49;100.00;95678.88;10445586;28;1582;-75
2023/05/13 20:27:59;;;;;;;;;;;;;;;11.42;100.00;95677.59;10450601;28;1973;-72
2023/05/13 20:33:03;;;;;;;;;;;;;;;11.41;100.00;95681.38;10444646;28;1495;-76
2023/05/13 20:38:08;;;;;;;;;;;;;;;11.28;100.00;95680.13;10451477;28;4468;-72
2023/05/13 20:43:15;;;;;;;;;;;;;;;11.09;100.00;95679.97;10451703;28;1457;-72
2023/05/13 20:48:18;;;;;;;;;;;;;;;10.93;100.00;95673.06;10459742;28;1914;-72
2023/05/13 20:53:25;;;;;;;;;;;;;;;10.77;100.00;95678.53;10431650;28;1671;-73
2023/05/13 20:58:28;;;;;;;;;;;;;;;10.77;100.00;95678.53;10447056;28;1461;-72
2023/05/13 21:03:31;;;;;;;;;;;;;;;10.81;100.00;95671.53;10443822;28;2251;-71
2023/05/13 21:08:38;;;;;;;;;;;;;;;10.73;100.00;95674.78;10431410;28;1961;-72
2023/05/13 21:13:45;;;;;;;;;;;;;;;10.76;100.00;95668.88;10447900;28;1500;-72
2023/05/13 21:18:57;;;;;;;;;;;;;;;10.67;100.00;95678.59;10444220;28;1512;-72
2023/05/13 21:24:11;;;;;;;;;;;;;;;10.77;100.00;95673.16;10447754;28;1508;-72
2023/05/13 21:29:16;;;;;;;;;;;;;;;10.85;100.00;95669.09;10444162;28;1914;-72
2023/05/13 21:34:44;;;;;;;;;;;;;;;10.86;100.00;95669.88;10441574;28;4332;-72
2023/05/13 21:39:50;;;;;;;;;;;;;;;10.89;100.00;95664.78;10439964;28;1600;-72
2023/05/13 21:45:00;;;;;;;;;;;;;;;10.82;100.00;95665.06;10436862;28;1926;-72
2023/05/13 21:50:07;;;;;;;;;;;;;;;10.80;100.00;95669.09;10440407;28;1980;-72
2023/05/13 21:55:12;;;;;;;;;;;;;;;10.71;100.00;95668.91;10421457;28;1918;-71
2023/05/13 22:00:23;;;;;;;;;;;;;;;10.79;100.00;95664.81;10432915;28;2322;-72
2023/05/13 22:05:40;;;;;;;;;;;;;;;10.80;100.00;95661.03;10435222;28;1974;-71
2023/05/13 22:11:00;;;;;;;;;;;;;;;10.91;100.00;95659.09;10437773;28;1902;-74
2023/05/13 22:16:09;;;;;;;;;;;;;;;10.86;100.00;95662.63;10438914;28;1874;-73
2023/05/13 22:21:14;;;;;;;;;;;;;;;10.99;100.00;95659.31;10436634;28;1940;-74
2023/05/13 22:26:17;;;;;;;;;;;;;;;10.95;100.00;95663.66;10439526;28;1830;-71
2023/05/13 22:31:20;;;;;;;;;;;;;;;10.85;100.00;95662.91;10435216;28;2020;-71
2023/05/13 22:36:31;;;;;;;;;;;;;;;10.80;100.00;95661.03;10439965;28;4470;-70
2023/05/13 22:41:35;;;;;;;;;;;;;;;10.52;100.00;95670.59;10448789;28;1893;-70
2023/05/13 22:46:41;;;;;;;;;;;;;;;10.55;100.00;95670.84;10454878;28;1849;-70
2023/05/13 22:51:46;;;;;;;;;;;;;;;10.53;100.00;95664.13;10457340;28;1981;-72
2023/05/13 22:56:52;;;;;;;;;;;;;;;10.50;100.00;95665.50;10454190;28;2140;-74
2023/05/13 23:02:00;;;;;;;;;;;;;;;10.47;100.00;95659.88;10452871;28;1819;-70
2023/05/13 23:07:04;;;;;;;;;;;;;;;10.51;100.00;95659.03;10453357;28;1882;-71
2023/05/13 23:12:10;;;;;;;;;;;;;;;10.56;100.00;95644.78;10437431;28;1987;-72
2023/05/13 23:17:13;;;;;;;;;;;;;;;10.42;100.00;95638.38;10453821;28;1886;-71
2023/05/13 23:22:20;;;;;;;;;;;;;;;10.32;100.00;95636.56;10453634;28;1840;-71
2023/05/13 23:27:23;;;;;;;;;;;;;;;10.36;100.00;95628.72;10439438;28;1835;-70
2023/05/13 23:32:37;;;;;;;;;;;;;;;10.27;100.00;95621.25;10438712;28;1914;-71
2023/05/13 23:37:42;;;;;;;;;;;;;;;10.17;100.00;95618.56;10449186;28;1847;-71
2023/05/13 23:42:50;;;;;;;;;;;;;;;10.16;100.00;95614.28;10434946;28;1883;-71
2023/05/13 23:47:55;;;;;;;;;;;;;;;10.07;100.00;95615.13;10454010;28;1934;-71
2023/05/13 23:52:58;;;;;;;;;;;;;;;10.00;100.00;95618.09;10444911;28;2321;-71
2023/05/13 23:58:01;;;;;;;;;;;;;;;9.95;100.00;95610.84;10444838;28;1883;-70
